Time;durP1;ratioP1;P1;durP2;ratioP2;P2;SDS_P1;SDS_P2;PMS_P1;PMS_P2;Temp;Humidity;BMP_temperature;BMP_pressure;BME280_temperature;BME280_humidity;BME280_pressure;Samples;Min_cycle;Max_cycle;Signal;HPM_P1;HPM_P2
2020/12/19 00:01:55;;;;;;;78.83;23.40;;;;;;;-1.33;87.73;102064.20;1714237;83;20943;-37
2020/12/19 00:04:25;;;;;;;67.87;22.37;;;;;;;-1.32;87.68;102064.69;1710891;83;20991;-34
2020/12/19 00:06:53;;;;;;;125.33;25.23;;;;;;;-1.32;87.60;102063.83;1714262;83;21026;-35
2020/12/19 00:09:21;;;;;;;127.30;26.48;;;;;;;-1.34;87.62;102061.59;1714461;83;20924;-35
2020/12/19 00:11:51;;;;;;;132.47;24.92;;;;;;;-1.36;87.67;102058.09;1712120;83;22239;-34
2020/12/19 00:14:20;;;;;;;160.85;27.00;;;;;;;-1.35;87.68;102055.62;1706357;84;20964;-34
2020/12/19 00:16:48;;;;;;;139.95;26.75;;;;;;;-1.34;87.65;102053.97;1706489;84;21485;-35
2020/12/19 00:19:16;;;;;;;187.75;28.27;;;;;;;-1.35;87.64;102050.95;1706450;84;21015;-34
2020/12/19 00:21:44;;;;;;;358.82;38.00;;;;;;;-1.36;87.67;102054.29;1706516;84;21055;-34
2020/12/19 00:27:13;;;;;;;384.67;38.80;;;;;;;-1.35;87.67;102043.33;1816206;79;22039;-34
2020/12/19 00:29:41;;;;;;;412.92;42.43;;;;;;;-1.40;87.79;102043.06;1789354;80;20939;-33
2020/12/19 00:32:10;;;;;;;402.82;38.50;;;;;;;-1.42;87.84;102036.13;1789290;80;21481;-35
2020/12/19 00:34:40;;;;;;;314.57;35.85;;;;;;;-1.43;87.85;102035.66;1785895;80;20946;-36
2020/12/19 00:37:08;;;;;;;251.22;34.25;;;;;;;-1.45;87.94;102031.77;1789356;80;21441;-36
2020/12/19 00:39:35;;;;;;;302.02;35.75;;;;;;;-1.48;88.02;102029.92;1789277;80;21018;-34
2020/12/19 00:42:03;;;;;;;221.57;31.68;;;;;;;-1.48;88.10;102031.61;1789315;80;20931;-34
2020/12/19 00:44:31;;;;;;;289.05;36.45;;;;;;;-1.47;88.12;102027.86;1789231;80;22230;-35
2020/12/19 00:46:59;;;;;;;311.35;37.30;;;;;;;-1.47;88.17;102023.20;1789208;80;21101;-35
2020/12/19 00:49:27;;;;;;;193.62;31.07;;;;;;;-1.49;88.21;102021.83;1789217;80;20986;-34
2020/12/19 00:51:56;;;;;;;186.67;31.40;;;;;;;-1.47;88.27;102028.27;1789288;80;21006;-35
2020/12/19 00:54:24;;;;;;;213.43;32.40;;;;;;;-1.46;88.25;102023.27;1789206;80;20880;-36
2020/12/19 00:56:52;;;;;;;164.18;29.80;;;;;;;-1.46;88.25;102020.72;1789265;80;21459;-36
2020/12/19 00:59:21;;;;;;;208.60;32.23;;;;;;;-1.46;88.31;102011.83;1789280;80;21423;-36
2020/12/19 01:01:49;;;;;;;188.57;33.10;;;;;;;-1.46;88.35;102014.37;1789145;80;20983;-34
2020/12/19 01:04:16;;;;;;;216.70;34.53;;;;;;;-1.43;88.32;102013.68;1789215;80;20990;-35
2020/12/19 01:06:44;;;;;;;159.37;30.75;;;;;;;-1.43;88.32;102011.14;1789222;80;20967;-34
2020/12/19 01:09:12;;;;;;;135.05;31.35;;;;;;;-1.43;88.34;102014.95;1789285;80;22258;-34
2020/12/19 01:11:40;;;;;;;191.10;34.58;;;;;;;-1.43;88.36;102008.98;1789135;80;21151;-35
2020/12/19 01:14:09;;;;;;;218.52;33.53;;;;;;;-1.40;88.33;102012.95;1789324;80;20983;-35
2020/12/19 01:16:38;;;;;;;235.70;34.70;;;;;;;-1.40;88.35;102006.22;1789209;80;20990;-35
2020/12/19 01:19:07;;;;;;;205.03;33.60;;;;;;;-1.41;88.40;102001.94;1789269;80;21054;-35
2020/12/19 01:21:35;;;;;;;241.90;33.95;;;;;;;-1.43;88.43;102000.98;1789203;80;21378;-35
2020/12/19 01:24:02;;;;;;;210.02;33.58;;;;;;;-1.41;88.41;102002.31;1789186;80;20946;-35
2020/12/19 01:26:31;;;;;;;200.53;34.35;;;;;;;-1.41;88.45;102006.13;1784520;80;20931;-36
2020/12/19 01:28:58;;;;;;;139.57;33.20;;;;;;;-1.44;88.49;101999.23;1781385;80;21038;-35
2020/12/19 01:31:26;;;;;;;175.68;32.93;;;;;;;-1.43;88.54;101998.81;1781502;80;20971;-36
2020/12/19 01:33:54;;;;;;;75.75;24.60;;;;;;;-1.39;88.53;102000.35;1781450;80;21388;-36
2020/12/19 01:36:23;;;;;;;108.32;28.92;;;;;;;-1.38;88.56;101996.16;1781332;80;20959;-37
2020/12/19 01:38:51;;;;;;;97.82;30.85;;;;;;;-1.39;88.57;101995.65;1780876;80;20987;-35
2020/12/19 01:41:21;;;;;;;88.27;30.02;;;;;;;-1.38;88.60;101992.34;1780960;80;20939;-35
2020/12/19 01:43:55;;;;;;;66.50;27.55;;;;;;;-1.37;88.55;101990.28;1780800;80;21133;-35
2020/12/19 01:46:31;;;;;;;67.47;28.23;;;;;;;-1.34;88.58;101991.72;1780881;80;21408;-35
2020/12/19 01:49:02;;;;;;;85.22;28.47;;;;;;;-1.33;88.63;101982.03;1781015;80;20959;-35
2020/12/19 01:51:30;;;;;;;80.67;27.98;;;;;;;-1.32;88.57;101992.68;1753219;80;20987;-35
2020/12/19 01:53:57;;;;;;;80.47;28.38;;;;;;;-1.31;88.52;101985.13;1780848;80;21027;-35
2020/12/19 01:56:46;;;;;;;71.60;26.93;;;;;;;-1.31;88.56;101987.66;1780900;80;21011;-35
2020/12/19 01:59:15;;;;;;;61.02;26.80;;;;;;;-1.32;88.58;101987.59;1780975;80;21382;-35
2020/12/19 02:01:54;;;;;;;52.60;25.35;;;;;;;-1.32;88.59;101984.64;1780789;80;20947;-38
2020/12/19 02:04:25;;;;;;;74.62;28.40;;;;;;;-1.32;88.53;101986.33;1780819;80;20936;-37
2020/12/19 02:06:55;;;;;;;73.52;29.70;;;;;;;-1.30;88.61;101979.66;1780883;80;21448;-35
2020/12/19 02:09:27;;;;;;;58.30;26.77;;;;;;;-1.31;88.63;101984.27;1780927;80;20912;-35
2020/12/19 02:11:54;;;;;;;91.80;29.57;;;;;;;-1.30;88.61;101986.02;1752858;80;21443;-35
2020/12/19 02:14:22;;;;;;;83.50;27.85;;;;;;;-1.28;88.54;101983.53;1780843;80;20947;-35
2020/12/19 02:16:58;;;;;;;111.10;29.23;;;;;;;-1.30;88.58;101982.20;1780920;80;20915;-35
2020/12/19 02:19:29;;;;;;;93.05;29.23;;;;;;;-1.31;88.61;101977.91;1780204;80;21143;-35
2020/12/19 02:21:57;;;;;;;88.60;29.05;;;;;;;-1.33;88.62;101972.73;1780871;80;21011;-36
2020/12/19 02:24:25;;;;;;;97.42;30.43;;;;;;;-1.30;88.62;101974.58;1780884;80;21390;-35
2020/12/19 02:26:55;;;;;;;99.17;26.90;;;;;;;-1.31;88.61;101974.09;1782243;80;20931;-36
2020/12/19 02:29:25;;;;;;;131.78;28.85;;;;;;;-1.31;88.67;101976.64;1783672;80;20920;-34
2020/12/19 02:31:53;;;;;;;117.10;27.77;;;;;;;-1.32;88.69;101969.81;1783610;80;20920;-34
2020/12/19 02:34:21;;;;;;;119.77;26.85;;;;;;;-1.30;88.70;101972.03;1783643;80;21442;-35
2020/12/19 02:36:50;;;;;;;112.05;26.20;;;;;;;-1.31;88.69;101969.02;1783666;80;21242;-35
2020/12/19 02:39:18;;;;;;;129.78;27.22;;;;;;;-1.34;88.74;101967.17;1783524;80;21010;-37
2020/12/19 02:41:47;;;;;;;147.32;28.38;;;;;;;-1.33;88.77;101971.88;1783513;80;21010;-37
2020/12/19 02:44:17;;;;;;;83.95;26.33;;;;;;;-1.30;88.78;101970.77;1783586;80;21062;-34
2020/12/19 02:46:47;;;;;;;53.58;22.95;;;;;;;-1.30;88.80;101972.03;1783535;80;20995;-37
2020/12/19 02:49:15;;;;;;;60.00;22.90;;;;;;;-1.28;88.81;101968.29;1783503;80;22477;-35
2020/12/19 02:51:44;;;;;;;45.35;20.88;;;;;;;-1.27;88.80;101965.84;1783636;80;21026;-35
2020/12/19 02:54:11;;;;;;;43.52;20.75;;;;;;;-1.24;88.74;101966.42;1783615;80;20876;-35
2020/12/19 02:56:40;;;;;;;69.40;22.25;;;;;;;-1.26;88.79;101969.25;1783553;80;20989;-35
2020/12/19 02:59:10;;;;;;;40.03;22.05;;;;;;;-1.27;88.84;101972.20;1783644;80;21011;-35
2020/12/19 03:01:39;;;;;;;42.05;23.18;;;;;;;-1.28;88.86;101970.45;1783518;80;22182;-34
2020/12/19 03:04:07;;;;;;;54.05;23.32;;;;;;;-1.25;88.84;101971.03;1783377;80;20998;-35
2020/12/19 03:06:35;;;;;;;46.80;21.62;;;;;;;-1.24;88.85;101969.82;1783620;80;21509;-36
2020/12/19 03:09:04;;;;;;;60.55;23.12;;;;;;;-1.25;88.88;101965.94;1783680;80;20940;-34
2020/12/19 03:11:32;;;;;;;74.58;24.27;;;;;;;-1.25;88.93;101966.80;1783570;80;21046;-34
2020/12/19 03:13:59;;;;;;;67.78;24.92;;;;;;;-1.22;88.94;101964.83;1783625;80;22081;-35
2020/12/19 03:16:27;;;;;;;50.90;23.38;;;;;;;-1.23;88.95;101966.48;1783550;80;21019;-35
2020/12/19 03:18:55;;;;;;;53.20;24.07;;;;;;;-1.22;88.99;101965.69;1783657;80;21076;-35
2020/12/19 03:21:23;;;;;;;51.77;24.07;;;;;;;-1.22;89.05;101971.19;1783667;80;20935;-35
2020/12/19 03:23:51;;;;;;;47.35;23.80;;;;;;;-1.22;89.07;101972.45;1783607;80;20882;-36
2020/12/19 03:26:19;;;;;;;43.17;23.77;;;;;;;-1.21;89.06;101969.13;1781494;80;21533;-36
2020/12/19 03:28:47;;;;;;;46.18;25.95;;;;;;;-1.21;89.10;101976.75;1774903;80;21034;-36
2020/12/19 03:31:15;;;;;;;49.63;25.17;;;;;;;-1.21;89.15;101975.48;1775067;80;21023;-35
2020/12/19 03:33:43;;;;;;;44.98;26.00;;;;;;;-1.22;89.12;101973.31;1774913;80;20939;-36
2020/12/19 03:36:11;;;;;;;49.18;25.70;;;;;;;-1.19;89.12;101976.02;1775089;80;20892;-36
2020/12/19 03:38:40;;;;;;;50.23;27.30;;;;;;;-1.20;89.14;101969.19;1775004;80;21205;-35
2020/12/19 03:41:08;;;;;;;48.98;26.87;;;;;;;-1.20;89.20;101967.92;1774937;80;21217;-36
2020/12/19 03:43:36;;;;;;;56.25;27.80;;;;;;;-1.18;89.19;101966.33;1752925;80;21055;-35
2020/12/19 03:46:04;;;;;;;53.63;28.05;;;;;;;-1.16;89.19;101971.52;1774957;80;21054;-35
2020/12/19 03:48:32;;;;;;;52.62;27.30;;;;;;;-1.17;89.23;101968.50;1775010;80;20908;-37
2020/12/19 03:51:00;;;;;;;56.70;27.35;;;;;;;-1.18;89.25;101970.14;1775019;80;22328;-36
2020/12/19 03:53:28;;;;;;;49.53;26.35;;;;;;;-1.19;89.35;101968.39;1775039;80;20936;-34
2020/12/19 03:55:56;;;;;;;56.10;27.85;;;;;;;-1.20;89.39;101967.92;1774945;80;21054;-37
2020/12/19 03:58:24;;;;;;;53.30;27.65;;;;;;;-1.20;89.47;101966.65;1774966;80;20924;-35
2020/12/19 04:00:51;;;;;;;52.67;26.65;;;;;;;-1.20;89.55;101967.06;1775022;80;20916;-35
2020/12/19 04:03:19;;;;;;;65.25;29.07;;;;;;;-1.23;89.68;101974.52;1775020;80;21270;-35
2020/12/19 04:05:48;;;;;;;61.28;31.52;;;;;;;-1.24;89.74;101964.73;1774838;80;20995;-35
2020/12/19 04:08:16;;;;;;;57.67;29.67;;;;;;;-1.22;89.80;101967.38;1775027;80;21050;-37
2020/12/19 04:10:44;;;;;;;68.50;31.20;;;;;;;-1.23;89.89;101969.03;1774941;80;21050;-35
2020/12/19 04:13:12;;;;;;;62.67;30.27;;;;;;;-1.23;89.95;101965.63;1775063;80;20941;-37
2020/12/19 04:15:40;;;;;;;69.05;32.35;;;;;;;-1.22;90.03;101975.86;1774977;80;21215;-35
2020/12/19 04:18:10;;;;;;;67.82;30.80;;;;;;;-1.21;90.05;101972.52;1774956;80;20987;-35
2020/12/19 04:20:37;;;;;;;67.17;30.50;;;;;;;-1.22;90.16;101964.42;1774965;80;20979;-36
2020/12/19 04:23:05;;;;;;;72.40;34.60;;;;;;;-1.23;90.28;101966.48;1774911;80;20951;-35
2020/12/19 04:25:33;;;;;;;72.35;33.67;;;;;;;-1.22;90.32;101961.87;1775061;80;20975;-36
2020/12/19 04:28:01;;;;;;;82.72;32.90;;;;;;;-1.21;90.35;101961.09;1774941;80;21354;-35
2020/12/19 04:30:29;;;;;;;62.00;28.05;;;;;;;-1.20;90.41;101961.98;1774901;80;20947;-35
2020/12/19 04:32:56;;;;;;;68.50;30.68;;;;;;;-1.20;90.51;101963.25;1774894;80;21003;-37
2020/12/19 04:35:24;;;;;;;75.28;36.17;;;;;;;-1.20;90.57;101951.81;1774996;80;20920;-36
2020/12/19 04:37:52;;;;;;;76.42;32.40;;;;;;;-1.18;90.58;101957.84;1774984;80;20888;-34
2020/12/19 04:40:21;;;;;;;82.12;33.70;;;;;;;-1.18;90.58;101953.62;1774948;80;21413;-35
2020/12/19 04:42:48;;;;;;;91.22;33.63;;;;;;;-1.16;90.63;101954.99;1775010;80;21014;-37
2020/12/19 04:45:17;;;;;;;85.15;34.05;;;;;;;-1.17;90.71;101949.43;1774953;80;20947;-35
2020/12/19 04:47:45;;;;;;;89.25;35.33;;;;;;;-1.17;90.76;101947.75;1774864;80;20987;-35
2020/12/19 04:50:13;;;;;;;71.92;31.95;;;;;;;-1.16;90.76;101943.55;1774933;80;20991;-36
2020/12/19 04:52:41;;;;;;;82.53;32.25;;;;;;;-1.15;90.77;101945.30;1728958;80;21211;-35
2020/12/19 04:55:09;;;;;;;82.35;35.40;;;;;;;-1.16;90.83;101944.41;1774935;80;20951;-36
2020/12/19 04:57:36;;;;;;;71.53;32.03;;;;;;;-1.14;90.86;101944.51;1774907;80;20991;-35
2020/12/19 05:00:05;;;;;;;76.02;32.50;;;;;;;-1.12;90.86;101947.15;1774984;80;20940;-36
2020/12/19 05:02:33;;;;;;;73.47;31.77;;;;;;;-1.13;90.89;101951.75;1774956;80;20991;-34
2020/12/19 05:05:06;;;;;;;76.92;31.82;;;;;;;-1.14;90.95;101955.95;1775010;80;21605;-35
2020/12/19 05:07:36;;;;;;;72.60;31.87;;;;;;;-1.13;91.01;101956.42;1773900;80;21006;-36
2020/12/19 05:10:04;;;;;;;76.00;32.53;;;;;;;-1.12;91.03;101957.31;1775055;80;20944;-36
2020/12/19 05:12:34;;;;;;;71.92;30.88;;;;;;;-1.10;91.03;101958.27;1774882;80;21006;-35
2020/12/19 05:15:05;;;;;;;75.92;32.30;;;;;;;-1.11;91.08;101957.79;1775228;80;21498;-34
2020/12/19 05:17:33;;;;;;;71.28;31.07;;;;;;;-1.11;91.11;101966.27;1775114;80;22021;-35
2020/12/19 05:20:01;;;;;;;76.82;33.10;;;;;;;-1.10;91.12;101965.89;1775040;80;20931;-37
2020/12/19 05:22:29;;;;;;;71.05;30.70;;;;;;;-1.09;91.12;101970.19;1775090;80;21023;-35
2020/12/19 05:24:57;;;;;;;68.45;29.65;;;;;;;-1.08;91.15;101965.58;1728768;80;21019;-34
2020/12/19 05:27:24;;;;;;;76.85;30.75;;;;;;;-1.09;91.16;101971.45;1754012;80;20928;-36
2020/12/19 05:29:52;;;;;;;76.42;33.05;;;;;;;-1.08;91.21;101966.84;1730659;80;21488;-35
2020/12/19 05:32:20;;;;;;;71.30;32.13;;;;;;;-1.08;91.19;101968.13;1785536;80;20987;-35
2020/12/19 05:34:51;;;;;;;66.75;30.52;;;;;;;-1.07;91.19;101968.59;1755567;80;21002;-36
2020/12/19 05:37:19;;;;;;;75.90;31.70;;;;;;;-1.08;91.22;101964.30;1785509;80;20983;-35
2020/12/19 05:39:53;;;;;;;77.75;34.05;;;;;;;-1.05;91.17;101973.36;1755473;80;21017;-35
2020/12/19 05:42:22;;;;;;;78.42;32.45;;;;;;;-1.06;91.19;101971.20;1785673;80;21056;-35
2020/12/19 05:44:50;;;;;;;77.20;32.30;;;;;;;-1.06;91.26;101972.47;1785406;80;20987;-37
2020/12/19 05:47:18;;;;;;;85.55;34.58;;;;;;;-1.07;91.27;101974.95;1785676;80;20995;-36
2020/12/19 05:49:46;;;;;;;77.45;33.25;;;;;;;-1.06;91.28;101975.43;1785554;80;21194;-35
2020/12/19 05:52:14;;;;;;;80.75;32.53;;;;;;;-1.04;91.28;101975.97;1755382;80;21049;-35
2020/12/19 05:54:43;;;;;;;80.17;33.30;;;;;;;-1.02;91.28;101976.06;1785616;80;22141;-36
2020/12/19 05:57:11;;;;;;;79.50;33.10;;;;;;;-1.01;91.32;101980.36;1785497;80;20963;-35
2020/12/19 05:59:39;;;;;;;81.10;33.08;;;;;;;-1.01;91.33;101981.63;1785555;80;20971;-34
2020/12/19 06:02:07;;;;;;;73.12;30.48;;;;;;;-0.99;91.29;101975.37;1785611;80;20950;-37
2020/12/19 06:04:35;;;;;;;85.00;34.33;;;;;;;-0.98;91.28;101983.05;1785549;80;20931;-36
2020/12/19 06:07:03;;;;;;;77.42;32.15;;;;;;;-0.98;91.29;101984.33;1730308;80;21398;-34
2020/12/19 06:09:31;;;;;;;87.30;33.88;;;;;;;-0.98;91.32;101987.28;1785469;80;20924;-36
2020/12/19 06:12:14;;;;;;;77.95;33.50;;;;;;;-0.96;91.29;101985.28;1755449;80;20951;-34
2020/12/19 06:14:45;;;;;;;78.22;32.60;;;;;;;-0.93;91.25;101985.44;1785592;80;21429;-38
2020/12/19 06:17:19;;;;;;;74.32;32.60;;;;;;;-0.90;91.27;101987.28;1785588;80;20927;-38
2020/12/19 06:19:47;;;;;;;70.92;29.70;;;;;;;-0.90;91.27;101997.05;1785531;80;21279;-35
2020/12/19 06:22:15;;;;;;;72.85;30.45;;;;;;;-0.88;91.25;101996.76;1755444;80;21521;-36
2020/12/19 06:24:48;;;;;;;73.33;30.68;;;;;;;-0.85;91.20;101998.98;1785535;80;20923;-36
2020/12/19 06:27:28;;;;;;;69.65;29.65;;;;;;;-0.85;91.21;102002.80;1784129;80;21030;-37
2020/12/19 06:29:56;;;;;;;87.55;33.35;;;;;;;-0.85;91.23;102000.25;1775057;80;21074;-33
2020/12/19 06:32:29;;;;;;;73.65;31.12;;;;;;;-0.84;91.23;102007.09;1775061;80;22568;-33
2020/12/19 06:35:10;;;;;;;74.47;29.60;;;;;;;-0.79;91.17;102012.02;1774869;80;21011;-33
2020/12/19 06:37:41;;;;;;;64.05;27.48;;;;;;;-0.81;91.16;102009.80;1775038;80;21496;-33
2020/12/19 06:40:17;;;;;;;73.57;30.45;;;;;;;-0.81;91.15;102011.06;1753838;80;21537;-35
2020/12/19 06:42:49;;;;;;;70.87;29.85;;;;;;;-0.80;91.12;102014.94;1774990;80;21027;-34
2020/12/19 06:45:27;;;;;;;69.85;29.40;;;;;;;-0.78;91.10;102013.77;1775082;80;21166;-36
2020/12/19 06:47:56;;;;;;;69.77;30.12;;;;;;;-0.77;91.11;102012.97;1774909;80;21495;-33
2020/12/19 06:50:24;;;;;;;67.37;29.30;;;;;;;-0.79;91.12;102019.23;1775009;80;20916;-34
2020/12/19 06:52:59;;;;;;;73.80;32.53;;;;;;;-0.76;91.09;102017.27;1774987;80;20927;-34
2020/12/19 06:55:29;;;;;;;45.80;21.10;;;;;;;-0.73;91.05;102014.88;1775357;80;21122;-35
2020/12/19 06:57:58;;;;;;;73.62;29.12;;;;;;;-0.73;91.04;102013.23;1774900;80;21355;-33
2020/12/19 07:00:31;;;;;;;71.50;30.65;;;;;;;-0.73;91.04;102013.61;1775008;80;20995;-35
2020/12/19 07:03:01;;;;;;;66.72;29.37;;;;;;;-0.71;91.05;102012.43;1775002;80;20948;-34
2020/12/19 07:05:33;;;;;;;74.03;29.92;;;;;;;-0.69;91.02;102015.52;1774883;80;20987;-33
2020/12/19 07:08:21;;;;;;;71.22;30.55;;;;;;;-0.70;91.03;102016.72;1775045;80;21050;-34
2020/12/19 07:10:51;;;;;;;75.05;30.02;;;;;;;-0.72;91.08;102019.17;1774999;80;21420;-37
2020/12/19 07:13:19;;;;;;;75.50;31.30;;;;;;;-0.71;91.12;102014.56;1775084;80;20999;-38
2020/12/19 07:15:52;;;;;;;67.65;28.85;;;;;;;-0.69;91.11;102013.39;1774918;80;21002;-35
2020/12/19 07:18:32;;;;;;;73.12;30.95;;;;;;;-0.68;91.14;102008.36;1774931;80;21494;-35
2020/12/19 07:21:08;;;;;;;73.70;31.87;;;;;;;-0.67;91.15;102011.80;1775009;80;21510;-36
2020/12/19 07:23:38;;;;;;;79.30;31.25;;;;;;;-0.64;91.20;102011.53;1774941;80;21200;-34
2020/12/19 07:26:08;;;;;;;87.60;32.65;;;;;;;-0.64;91.18;102011.53;1774331;80;21026;-37
2020/12/19 07:28:35;;;;;;;78.22;31.65;;;;;;;-0.62;91.24;102010.36;1777624;80;20931;-37
2020/12/19 07:31:03;;;;;;;76.62;31.30;;;;;;;-0.63;91.24;102014.59;1780737;80;21050;-37
2020/12/19 07:33:31;;;;;;;73.75;30.97;;;;;;;-0.61;91.28;102017.20;1780882;80;20959;-35
2020/12/19 07:35:59;;;;;;;88.27;34.30;;;;;;;-0.57;91.26;102011.88;1780722;80;21374;-38
2020/12/19 07:38:27;;;;;;;79.15;32.42;;;;;;;-0.56;91.27;102011.95;1752618;80;20936;-36
2020/12/19 07:40:55;;;;;;;83.85;32.55;;;;;;;-0.53;91.31;102012.52;1780807;80;21475;-36
2020/12/19 07:43:24;;;;;;;80.17;33.78;;;;;;;-0.51;91.32;102022.38;1780842;80;20936;-37
2020/12/19 07:45:57;;;;;;;74.70;30.00;;;;;;;-0.49;91.27;102022.05;1780921;80;21438;-36
2020/12/19 07:48:25;;;;;;;77.72;30.80;;;;;;;-0.50;91.33;102024.13;1780780;80;21380;-35
2020/12/19 07:50:53;;;;;;;81.47;32.17;;;;;;;-0.49;91.35;102024.59;1780728;80;20923;-35
2020/12/19 07:53:21;;;;;;;73.35;31.10;;;;;;;-0.45;91.37;102027.77;1780745;80;20891;-35
2020/12/19 07:55:50;;;;;;;70.78;29.10;;;;;;;-0.41;91.35;102027.13;1780759;80;21011;-36
2020/12/19 07:58:21;;;;;;;74.22;30.55;;;;;;;-0.39;91.38;102023.41;1780826;80;20991;-36
2020/12/19 08:00:48;;;;;;;72.78;30.90;;;;;;;-0.36;91.45;102019.74;1752667;80;21361;-36
2020/12/19 08:03:16;;;;;;;71.97;30.37;;;;;;;-0.31;91.49;102021.73;1780638;80;21035;-35
2020/12/19 08:05:54;;;;;;;66.05;30.95;;;;;;;-0.24;91.40;102015.69;1780715;80;21039;-34
2020/12/19 08:08:22;;;;;;;66.72;27.87;;;;;;;-0.22;91.43;102010.27;1780818;80;21418;-36
2020/12/19 08:10:49;;;;;;;61.63;26.73;;;;;;;-0.20;91.46;102009.56;1780743;80;20987;-35
2020/12/19 08:13:17;;;;;;;68.33;28.27;;;;;;;-0.18;91.40;102011.78;1780697;80;21421;-36
2020/12/19 08:15:45;;;;;;;66.53;28.77;;;;;;;-0.13;91.37;102009.87;1780751;80;21159;-35
2020/12/19 08:18:14;;;;;;;67.97;28.95;;;;;;;-0.12;91.37;102011.61;1780746;80;21050;-35
2020/12/19 08:20:42;;;;;;;64.30;28.27;;;;;;;-0.14;91.36;102016.61;1780720;80;20932;-35
2020/12/19 08:23:10;;;;;;;69.25;27.37;;;;;;;-0.12;91.37;102016.70;1780865;80;20970;-35
2020/12/19 08:25:38;;;;;;;70.87;29.55;;;;;;;-0.12;91.30;102009.95;1780747;80;22763;-35
2020/12/19 08:28:06;;;;;;;67.87;28.42;;;;;;;-0.11;91.33;102009.16;1780464;80;20975;-35
2020/12/19 08:30:33;;;;;;;75.57;30.10;;;;;;;-0.12;91.37;102007.41;1780790;80;21501;-36
2020/12/19 08:33:05;;;;;;;62.93;28.12;;;;;;;-0.08;91.40;102010.58;1780804;80;21426;-36
2020/12/19 08:35:44;;;;;;;64.30;29.85;;;;;;;-0.02;91.37;102008.72;1780737;80;20876;-35
2020/12/19 08:38:19;;;;;;;71.20;28.85;;;;;;;-0.03;91.30;102010.41;1780692;80;21313;-34
2020/12/19 08:40:50;;;;;;;65.45;27.95;;;;;;;-0.04;91.37;102003.95;1780697;80;21011;-34
2020/12/19 08:43:19;;;;;;;70.03;28.65;;;;;;;-0.02;91.32;101994.33;1780192;80;21011;-35
2020/12/19 08:45:48;;;;;;;63.38;28.23;;;;;;;-0.01;91.26;101999.89;1780679;80;20995;-36
2020/12/19 08:48:23;;;;;;;62.78;27.02;;;;;;;-0.02;91.31;101995.60;1780952;80;21034;-35
2020/12/19 08:50:53;;;;;;;75.55;28.50;;;;;;;-0.03;91.29;101993.86;1780457;80;21365;-35
2020/12/19 08:53:26;;;;;;;72.30;28.25;;;;;;;-0.01;91.33;101992.64;1780897;80;21065;-35
2020/12/19 08:55:55;;;;;;;61.25;26.85;;;;;;;0.02;91.22;101983.91;1780871;80;21003;-37
2020/12/19 08:58:30;;;;;;;65.25;27.52;;;;;;;0.04;91.29;101989.06;1780875;80;20931;-35
2020/12/19 09:01:00;;;;;;;67.27;28.27;;;;;;;0.08;91.36;101979.11;1781117;80;20983;-37
2020/12/19 09:03:32;;;;;;;59.15;27.75;;;;;;;0.15;91.34;101984.11;1780935;80;21378;-35
2020/12/19 09:06:05;;;;;;;59.95;26.80;;;;;;;0.19;91.23;101977.09;1780810;80;21006;-34
2020/12/19 09:08:38;;;;;;;52.50;24.80;;;;;;;0.21;91.25;101971.67;1780828;80;21042;-36
2020/12/19 09:11:11;;;;;;;57.90;24.15;;;;;;;0.24;91.21;101977.29;1780866;80;21386;-35
2020/12/19 09:13:38;;;;;;;56.75;22.95;;;;;;;0.27;91.14;101974.50;1776616;80;21482;-36
2020/12/19 09:16:09;;;;;;;50.78;21.80;;;;;;;0.31;91.07;101972.98;1780674;80;21108;-35
2020/12/19 09:18:38;;;;;;;95.10;24.67;;;;;;;0.28;91.03;101972.42;1780909;80;21022;-35
2020/12/19 09:21:09;;;;;;;52.15;20.77;;;;;;;0.31;91.07;101974.27;1780866;80;21106;-35
2020/12/19 09:23:37;;;;;;;95.45;24.40;;;;;;;0.34;90.99;101972.23;1780699;80;21002;-35
2020/12/19 09:26:05;;;;;;;97.70;23.42;;;;;;;0.37;90.84;101976.20;1780985;80;21577;-37
2020/12/19 09:28:33;;;;;;;66.02;23.67;;;;;;;0.36;90.77;101973.19;1779498;80;21434;-36
2020/12/19 09:31:03;;;;;;;69.03;21.57;;;;;;;0.36;90.73;101975.73;1775028;80;20900;-36
2020/12/19 09:33:31;;;;;;;146.65;25.97;;;;;;;0.34;90.64;101976.06;1775057;80;20920;-36
2020/12/19 09:35:59;;;;;;;226.27;31.52;;;;;;;0.34;90.58;101965.48;1775061;80;20995;-36
2020/12/19 09:38:26;;;;;;;239.75;30.80;;;;;;;0.35;90.62;101969.78;1775161;80;21038;-36
2020/12/19 09:40:54;;;;;;;140.62;26.17;;;;;;;0.36;90.58;101964.27;1775019;80;21268;-36
2020/12/19 09:43:22;;;;;;;143.72;26.70;;;;;;;0.38;90.48;101954.64;1775031;80;21043;-37
2020/12/19 09:45:51;;;;;;;165.60;29.95;;;;;;;0.39;90.37;101953.84;1775058;80;20999;-36
2020/12/19 09:48:20;;;;;;;65.08;21.87;;;;;;;0.40;90.38;101958.13;1775061;80;20964;-38
2020/12/19 09:50:47;;;;;;;55.83;22.00;;;;;;;0.37;90.33;101959.27;1775002;80;21023;-36
2020/12/19 09:53:17;;;;;;;173.28;28.87;;;;;;;0.37;90.19;101960.92;1775070;80;22387;-36
2020/12/19 09:55:47;;;;;;;172.22;32.63;;;;;;;0.38;90.24;101950.81;1775022;80;21078;-36
2020/12/19 09:58:16;;;;;;;210.82;31.42;;;;;;;0.42;90.37;101956.94;1775046;80;21042;-36
2020/12/19 10:00:45;;;;;;;180.30;30.15;;;;;;;0.43;90.38;101952.31;1774998;80;21189;-35
2020/12/19 10:03:13;;;;;;;60.28;24.57;;;;;;;0.44;90.39;101951.52;1775137;80;20920;-34
2020/12/19 10:05:41;;;;;;;41.75;20.43;;;;;;;0.49;90.35;101947.89;1775075;80;22835;-34
2020/12/19 10:08:10;;;;;;;45.55;23.77;;;;;;;0.51;90.27;101952.27;1774941;80;21014;-36
2020/12/19 10:10:43;;;;;;;45.12;22.55;;;;;;;0.50;90.26;101948.36;1774793;80;21006;-35
2020/12/19 10:13:10;;;;;;;41.73;20.72;;;;;;;0.49;90.18;101951.33;1729483;80;21015;-34
2020/12/19 10:15:39;;;;;;;50.08;21.50;;;;;;;0.49;90.05;101951.70;1775064;80;21102;-35
2020/12/19 10:18:07;;;;;;;41.45;19.82;;;;;;;0.51;89.95;101954.81;1775121;80;21339;-36
2020/12/19 10:20:35;;;;;;;43.92;22.48;;;;;;;0.51;89.98;101948.86;1774979;80;20940;-35
2020/12/19 10:23:03;;;;;;;45.03;22.67;;;;;;;0.51;90.04;101945.89;1775109;80;20919;-34
2020/12/19 10:25:33;;;;;;;43.58;21.55;;;;;;;0.55;90.02;101946.92;1775042;80;20950;-34
2020/12/19 10:28:01;;;;;;;45.28;22.05;;;;;;;0.57;89.92;101946.17;1775154;80;20983;-34
2020/12/19 10:30:32;;;;;;;47.80;24.23;;;;;;;0.56;89.79;101943.16;1779263;80;21372;-35
2020/12/19 10:33:00;;;;;;;42.62;21.95;;;;;;;0.54;89.80;101937.11;1780731;80;20990;-34
2020/12/19 10:35:29;;;;;;;45.35;22.90;;;;;;;0.54;89.67;101936.26;1780801;80;20998;-37
2020/12/19 10:37:57;;;;;;;45.88;22.27;;;;;;;0.53;89.63;101937.92;1780806;80;21022;-35
2020/12/19 10:40:24;;;;;;;42.50;22.75;;;;;;;0.54;89.61;101937.11;1780832;80;20880;-35
2020/12/19 10:42:52;;;;;;;41.20;21.37;;;;;;;0.55;89.61;101935.03;1780764;80;21371;-35
2020/12/19 10:45:21;;;;;;;43.02;21.52;;;;;;;0.57;89.49;101933.43;1780843;80;21354;-34
2020/12/19 10:47:48;;;;;;;37.67;19.87;;;;;;;0.59;89.35;101936.45;1780735;80;20997;-36
2020/12/19 10:50:18;;;;;;;45.43;23.25;;;;;;;0.57;89.32;101928.33;1780804;80;21031;-34
2020/12/19 10:52:48;;;;;;;41.33;21.65;;;;;;;0.55;89.27;101924.84;1780834;80;20983;-33
2020/12/19 10:55:16;;;;;;;41.25;21.17;;;;;;;0.57;89.24;101923.23;1780846;80;21382;-34
2020/12/19 10:57:43;;;;;;;39.27;21.27;;;;;;;0.57;89.09;101920.69;1780743;80;20943;-35
2020/12/19 11:00:12;;;;;;;36.30;19.92;;;;;;;0.55;89.10;101923.56;1780764;80;20924;-36
2020/12/19 11:02:40;;;;;;;35.43;20.52;;;;;;;0.54;89.06;101927.34;1780741;80;21022;-35
2020/12/19 11:05:08;;;;;;;37.13;19.45;;;;;;;0.53;89.03;101931.55;1780781;80;20999;-35
2020/12/19 11:07:36;;;;;;;231.20;32.15;;;;;;;0.53;89.01;101935.37;1780668;80;21209;-33
2020/12/19 11:10:04;;;;;;;324.12;34.63;;;;;;;0.49;89.04;101934.76;1780695;80;21019;-34
2020/12/19 11:12:32;;;;;;;77.90;19.55;;;;;;;0.51;89.08;101932.30;1780806;80;21006;-36
2020/12/19 11:15:00;;;;;;;258.13;28.75;;;;;;;0.53;89.09;101930.69;1780842;80;21264;-34
2020/12/19 11:17:29;;;;;;;337.08;36.48;;;;;;;0.48;89.13;101933.02;1780782;80;20959;-34
2020/12/19 11:19:57;;;;;;;257.18;29.98;;;;;;;0.45;89.14;101932.88;1780728;80;21379;-34
2020/12/19 11:22:26;;;;;;;448.45;41.88;;;;;;;0.46;89.15;101930.80;1780745;80;20943;-36